Latest Weather Observations for Moorabbin Airport

IDV60901

Issued at 6:31 am EDT Wednesday 28 February 2024 (issued every 10 minutes, with the page automatically refreshed every 10 minutes)

About weather observations | Map of Melbourne area stations | Latest observations for Melbourne area | Other Formats
Station Details ID: 086077 Name: MOORABBIN AIRPORT Lat: -37.98 Lon: 145.10 Height: 12.1 m
Data from the previous 72 hours. | See also: Recent months at Moorabbin Airport
Date/Time
EDT
Temp
°C
App
Temp
°C
Dew
Point
°C
Rel
Hum
%
Delta-T
°C
Wind Press
QNH
hPa
Press
MSL
hPa
Rain since
9am
mm
Dir  Spd
km/h
Gust
km/h
Spd
kts
Gust
kts
28/06:30am 16.5 17.6 13.4 82 1.7 CALM 0 0 0 0 1010.5 1010.5 0.0
28/06:00am 17.1 18.4 14.0 82 1.8 CALM 0 0 0 0 1010.5 1010.5 0.0
28/05:30am 16.6 17.8 13.9 84 1.5 CALM 0 0 0 0 1010.5 1010.5 0.0
28/05:00am 16.9 18.2 14.0 83 1.7 CALM 0 0 0 0 1010.8 1010.8 0.0
28/04:30am 17.2 17.7 15.0 87 1.3 NE 6 6 3 3 1011.1 1011.1 0.0
28/04:00am 17.0 18.6 15.0 88 1.2 CALM 0 0 0 0 1011.4 1011.4 0.0
28/03:30am 17.1 18.7 14.9 87 1.3 CALM 0 0 0 0 1011.6 1011.6 0.0
28/03:00am 17.2 18.8 14.8 86 1.4 CALM 0 0 0 0 1011.9 1011.9 0.0
28/02:30am 17.4 19.0 15.0 86 1.4 CALM 0 0 0 0 1011.7 1011.7 0.0
28/02:00am 18.0 19.1 14.7 81 1.9 N 2 4 1 2 1011.9 1011.9 0.0
28/01:30am 19.6 20.3 15.7 78 2.3 N 6 7 3 4 1012.0 1012.0 0.0
28/01:00am 19.2 19.4 15.7 80 2.1 N 9 11 5 6 1011.9 1011.9 0.0
28/12:30am 18.5 18.8 15.9 85 1.5 N 9 9 5 5 1012.1 1012.1 0.0
28/12:00am 19.8 20.8 16.8 83 1.8 N 7 11 4 6 1012.2 1012.2 0.0
 
Date/Time
EDT
Temp
°C
App
Temp
°C
Dew
Point
°C
Rel
Hum
%
Delta-T
°C
Wind Press
QNH
hPa
Press
MSL
hPa
Rain since
9am
mm
Dir  Spd
km/h
Gust
km/h
Spd
kts
Gust
kts
27/11:30pm 20.3 21.2 17.5 84 1.7 NW 9 11 5 6 1012.3 1012.3 0.0
27/11:00pm 20.8 21.9 17.2 80 2.2 NW 7 9 4 5 1012.3 1012.3 0.0
27/10:30pm 22.1 22.0 16.1 69 3.6 NW 11 17 6 9 1012.2 1012.2 0.0
27/10:00pm 22.5 22.8 14.9 62 4.5 ESE 7 13 4 7 1012.0 1012.0 0.0
27/09:30pm 21.9 21.4 14.8 64 4.2 SE 11 15 6 8 1012.0 1012.0 0.0
27/09:00pm 23.5 22.6 14.8 58 5.2 SE 13 17 7 9 1011.7 1011.7 0.0
27/08:30pm 24.6 23.2 14.4 53 6.0 SE 15 17 8 9 1011.5 1011.5 0.0
27/08:00pm 25.8 24.3 14.3 49 6.8 SE 15 19 8 10 1011.4 1011.4 0.0
27/07:30pm 26.5 26.7 15.8 51 6.5 SSE 9 13 5 7 1011.2 1011.2 0.0
27/07:00pm 26.4 26.0 16.1 53 6.3 S 13 17 7 9 1011.3 1011.3 0.0
27/06:30pm 26.4 26.0 16.1 53 6.3 SSW 13 19 7 10 1011.3 1011.3 0.0
27/06:00pm 26.3 25.0 15.7 52 6.5 SW 17 22 9 12 1011.2 1011.2 0.0
27/05:30pm 26.2 24.8 15.6 52 6.5 SW 17 20 9 11 1011.0 1011.0 0.0
27/05:00pm 27.3 26.1 16.0 50 7.0 SW 17 20 9 11 1011.2 1011.2 0.0
27/04:30pm 26.3 25.0 15.7 52 6.5 SW 17 20 9 11 1011.5 1011.5 0.0
27/04:00pm 26.4 24.8 16.1 53 6.3 SW 19 24 10 13 1012.0 1012.0 0.0
27/03:30pm 26.5 25.6 15.8 51 6.5 SSW 15 20 8 11 1012.2 1012.2 0.0
27/03:00pm 25.2 23.7 15.2 54 6.0 SW 17 28 9 15 1012.9 1012.9 0.0
27/02:30pm 25.0 24.3 15.3 55 5.8 SSW 13 19 7 10 1013.3 1013.3 0.0
27/02:00pm 23.8 22.6 13.9 54 5.8 SSW 13 17 7 9 1013.5 1013.5 0.0
27/01:30pm 22.9 22.2 14.2 58 5.1 SSW 11 17 6 9 1013.7 1013.7 0.0
27/01:00pm 21.7 20.4 13.6 60 4.7 SSW 13 17 7 9 1014.2 1014.2 0.0
27/12:30pm 21.7 19.7 13.9 61 4.5 SSW 17 20 9 11 1014.8 1014.8 0.0
27/12:00pm 22.3 21.8 12.5 53 5.6 NW 7 13 4 7 1015.1 1015.1 0.0
27/11:30am 21.1 19.9 12.8 59 4.7 N 11 17 6 9 1015.1 1015.1 0.0
27/11:00am 20.0 19.5 12.7 63 4.1 N 7 13 4 7 1015.4 1015.4 0.0
27/10:30am 18.5 17.7 11.6 64 3.8 NNE 7 13 4 7 1015.8 1015.8 0.0
27/10:00am 18.0 16.9 12.0 68 3.3 N 9 15 5 8 1015.9 1015.9 0.0
27/09:30am 16.8 14.8 11.5 71 2.9 N 13 20 7 11 1015.9 1015.9 0.0
27/09:00am 15.7 13.7 11.5 76 2.3 N 13 15 7 8 1016.1 1016.1 0.0
27/08:30am 14.2 12.1 11.0 81 1.7 N 13 15 7 8 1016.2 1016.2 0.0
27/08:00am 12.9 11.0 10.6 86 1.2 N 11 17 6 9 1016.0 1016.0 0.0
27/07:30am 11.8 10.5 9.9 88 1.0 NNE 7 9 4 5 1015.8 1015.8 0.0
27/07:00am 11.2 9.4 9.3 88 1.0 NE 9 13 5 7 1015.4 1015.4 0.0
27/06:30am 11.5 10.4 10.1 91 0.7 NNE 6 7 3 4 1015.3 1015.3 0.0
27/06:00am 11.7 10.5 9.6 87 1.1 ENE 6 6 3 3 1015.1 1015.1 0.0
27/05:30am 12.7 11.5 10.2 85 1.3 SSE 7 11 4 6 1015.1 1015.1 0.0
27/05:00am 12.8 11.9 10.5 86 1.2 SE 6 7 3 4 1015.2 1015.2 0.0
27/04:30am 13.7 11.9 10.7 82 1.6 SSE 11 13 6 7 1015.1 1015.1 0.0
27/04:00am 14.2 12.1 11.0 81 1.7 SSE 13 15 7 8 1015.5 1015.5 0.0
27/03:30am 14.3 12.5 10.7 79 1.9 S 11 15 6 8 1016.0 1016.0 0.0
27/03:00am 14.0 12.5 10.4 79 1.9 SSW 9 11 5 6 1016.3 1016.3 0.0
27/02:30am 13.7 11.7 10.1 79 1.9 SSE 11 15 6 8 1016.6 1016.6 0.0
27/02:00am 14.1 12.5 10.3 78 2.0 SSE 9 13 5 7 1017.2 1017.2 0.0
27/01:30am 13.9 12.3 10.1 78 2.0 SSE 9 13 5 7 1017.5 1017.5 0.0
27/01:00am 14.3 13.0 9.9 75 2.3 S 7 11 4 6 1017.9 1017.9 0.0
27/12:30am 14.0 11.9 9.6 75 2.3 SSE 11 15 6 8 1018.0 1018.0 0.0
27/12:00am 14.3 11.7 9.3 72 2.6 SSE 13 19 7 10 1018.3 1018.3 0.0
 
Date/Time
EDT
Temp
°C
App
Temp
°C
Dew
Point
°C
Rel
Hum
%
Delta-T
°C
Wind Press
QNH
hPa
Press
MSL
hPa
Rain since
9am
mm
Dir  Spd
km/h
Gust
km/h
Spd
kts
Gust
kts
26/11:30pm 14.7 11.7 9.3 70 2.8 SSE 15 20 8 11 1018.7 1018.7 0.0
26/11:00pm 14.9 11.5 9.1 68 3.0 SE 17 22 9 12 1019.1 1019.1 0.0
26/10:30pm 15.3 12.0 9.4 68 3.0 SSE 17 20 9 11 1019.1 1019.1 0.0
26/10:00pm 15.5 11.8 9.4 67 3.1 SSE 19 24 10 13 1019.3 1019.3 0.0
26/09:30pm 15.6 11.9 9.5 67 3.2 SSE 19 24 10 13 1019.4 1019.4 0.0
26/09:00pm 15.6 11.7 9.5 67 3.1 SE 20 24 11 13 1019.1 1019.1 0.0
26/08:30pm 16.0 12.1 9.4 65 3.4 SSE 20 30 11 16 1019.1 1019.1 0.0
26/08:00pm 16.4 11.7 9.1 62 3.8 SSE 24 32 13 17 1019.0 1019.0 0.0
26/07:30pm 16.9 13.0 9.3 61 4.0 SE 20 28 11 15 1018.9 1018.9 0.0
26/07:00pm 17.4 13.1 9.3 59 4.2 SSE 22 30 12 16 1018.9 1018.9 0.0
26/06:30pm 18.5 14.7 9.8 57 4.6 SSE 20 26 11 14 1018.7 1018.7 0.0
26/06:00pm 18.5 14.8 10.3 59 4.4 S 20 28 11 15 1018.7 1018.7 0.0
26/05:30pm 19.8 15.7 10.0 53 5.3 S 22 33 12 18 1018.6 1018.6 0.0
26/05:00pm 19.1 14.1 9.6 54 5.0 SSW 26 32 14 17 1018.7 1018.7 0.0
26/04:30pm 19.2 14.5 9.4 53 5.2 SSW 24 33 13 18 1018.7 1018.7 0.0
26/04:00pm 20.2 16.1 10.0 52 5.5 SSE 22 33 12 18 1018.8 1018.8 0.0
26/03:30pm 21.0 17.4 9.9 49 6.0 SSE 19 28 10 15 1018.9 1018.9 0.0
26/03:00pm 21.2 17.6 10.7 51 5.7 S 20 26 11 14 1019.2 1019.2 0.0
26/02:30pm 20.5 16.4 10.0 51 5.7 S 22 32 12 17 1019.5 1019.5 0.0
26/02:00pm 19.8 15.9 10.8 56 4.9 SSW 22 30 12 16 1019.4 1019.4 0.0
26/01:30pm 20.0 16.2 11.0 56 4.9 SW 22 32 12 17 1019.6 1019.6 0.0
26/01:00pm 19.9 16.3 9.8 52 5.4 SW 19 26 10 14 1019.6 1019.6 0.0
26/12:30pm 19.3 15.7 10.6 57 4.7 SSW 20 32 11 17 1019.8 1019.8 0.0
26/12:00pm 19.3 15.6 10.0 55 5.0 SSW 20 28 11 15 1019.9 1019.9 0.0
26/11:30am 18.6 14.4 9.7 56 4.7 S 22 30 12 16 1020.0 1020.0 0.0
26/11:00am 18.6 15.2 11.2 62 4.0 SSW 20 28 11 15 1019.8 1019.8 0.0
26/10:30am 19.0 16.5 11.1 60 4.3 S 15 22 8 12 1019.7 1019.7 0.0
26/10:00am 18.1 14.4 10.0 59 4.3 S 20 30 11 16 1019.7 1019.7 0.0
26/09:30am 17.5 13.9 10.6 64 3.7 S 20 26 11 14 1019.4 1019.4 0.0
26/09:00am 16.7 13.3 10.5 67 3.3 S 19 28 10 15 1019.1 1019.1 2.6
26/08:30am 16.5 13.4 11.6 73 2.7 S 19 24 10 13 1018.6 1018.6 2.6
26/08:00am 16.3 14.2 12.5 78 2.1 S 15 24 8 13 1018.3 1018.3 2.6
26/07:30am 16.1 13.7 12.8 81 1.8 S 17 26 9 14 1018.0 1018.0 2.6
26/07:00am 16.0 14.0 13.8 87 1.2 S 17 20 9 11 1017.7 1017.7 2.6
26/06:30am 16.2 15.8 15.1 93 0.6 S 11 17 6 9 1017.3 1017.3 2.4
26/06:07am 16.1 15.4 15.3 95 0.5 SSW 13 19 7 10 1017.0 1017.0 2.4
26/06:00am 16.0 15.2 15.2 95 0.5 SSW 13 19 7 10 1017.0 1017.0 2.4
26/05:35am 16.0 14.1 15.2 95 0.5 SSW 19 30 10 16 1017.1 1017.1 1.8
26/05:30am 16.1 14.0 15.1 94 0.6 SSW 20 30 11 16 1017.0 1017.0 1.8
26/05:25am 16.2 14.3 15.1 93 0.6 SSW 19 30 10 16 1017.0 1017.0 1.6
26/05:20am 16.6 15.5 15.3 92 0.8 SSW 15 22 8 12 1016.9 1016.9 0.6
26/05:14am 16.4 15.7 15.3 93 0.6 SW 13 19 7 10 1016.9 1016.9 0.6
26/05:00am 16.1 13.9 14.8 92 0.7 SSW 20 33 11 18 1016.9 1016.9 0.4
26/04:55am 16.6 14.5 15.3 92 0.8 SW 20 28 11 15 1016.7 1016.7 0.4
26/04:48am 16.5 14.3 15.0 91 0.9 SSW 20 28 11 15 1016.7 1016.7 0.4
26/04:30am 17.2 15.7 15.4 89 1.1 SSW 17 26 9 14 1016.5 1016.5 0.4
26/04:24am 17.1 16.1 15.6 91 0.9 SSW 15 26 8 14 1016.6 1016.6 0.4
26/04:11am 16.8 17.4 15.7 93 0.6 SW 7 17 4 9 1016.5 1016.5 0.4
26/04:02am 16.7 17.3 15.4 92 0.8 NNE 6 7 3 4 1016.6 1016.6 0.2
26/04:00am 16.7 17.4 15.6 93 0.6 NNE 6 9 3 5 1016.6 1016.6 0.2
26/03:45am 16.7 16.8 15.6 93 0.6 E 9 11 5 6 1016.6 1016.6 0.2
26/03:43am 16.7 16.8 15.4 92 0.8 E 9 11 5 6 1016.6 1016.6 0.2
26/03:30am 16.8 16.5 15.5 92 0.8 SE 11 15 6 8 1016.6 1016.6 0.2
26/03:00am 17.4 17.9 15.6 89 1.1 SSE 7 9 4 5 1016.8 1016.8 0.2
26/02:30am 17.7 16.9 15.0 84 1.6 SSE 13 17 7 9 1016.9 1016.9 0.0
26/02:00am 18.4 16.5 14.1 76 2.5 SSW 17 20 9 11 1016.8 1016.8 0.0
26/01:30am 18.5 16.9 14.0 75 2.6 SSW 15 20 8 11 1017.0 1017.0 0.0
26/01:00am 18.5 17.3 14.0 75 2.6 SSW 13 19 7 10 1016.9 1016.9 0.0
26/12:30am 18.6 16.6 13.9 74 2.7 SSW 17 22 9 12 1016.9 1016.9 0.0
26/12:00am 18.4 17.2 13.9 75 2.6 SSW 13 20 7 11 1016.9 1016.9 0.0
 
Date/Time
EDT
Temp
°C
App
Temp
°C
Dew
Point
°C
Rel
Hum
%
Delta-T
°C
Wind Press
QNH
hPa
Press
MSL
hPa
Rain since
9am
mm
Dir  Spd
km/h
Gust
km/h
Spd
kts
Gust
kts
25/11:30pm 18.5 17.2 13.6 73 2.8 SSW 13 20 7 11 1017.2 1017.2 0.0
25/11:00pm 18.6 17.4 13.9 74 2.7 S 13 17 7 9 1017.1 1017.1 0.0
25/10:30pm 18.6 15.3 13.9 74 2.7 SSW 24 30 13 16 1016.4 1016.4 0.0
25/10:00pm 18.8 15.5 13.9 73 2.8 SSW 24 35 13 19 1015.8 1015.8 0.0
25/09:30pm 19.2 16.1 13.4 69 3.3 SSW 22 32 12 17 1015.6 1015.6 0.0
25/09:00pm 19.2 16.7 13.6 70 3.2 S 19 28 10 15 1014.9 1014.9 0.0
25/08:33pm 19.3 15.5 14.6 74 2.7 SSW 28 46 15 25 1014.8 1014.8 0.0
25/08:30pm 19.2 15.1 14.9 76 2.5 SSW 30 46 16 25 1014.7 1014.7 0.0
25/08:00pm 19.4 15.0 15.7 79 2.2 SSW 33 56 18 30 1013.8 1013.8 0.0
25/07:53pm 19.5 15.6 15.6 78 2.3 SSW 30 56 16 30 1013.7 1013.7 0.0
25/07:30pm 20.3 16.9 15.9 76 2.6 SSW 28 44 15 24 1013.1 1013.1 0.0
25/07:17pm 21.4 17.6 14.6 65 4.0 SW 28 39 15 21 1013.1 1013.1 0.0
25/07:00pm 24.6 23.0 11.5 43 7.4 SSW 11 17 6 9 1012.2 1012.2 0.0
25/06:30pm 24.4 21.4 12.0 46 7.1 SSW 19 26 10 14 1012.0 1012.0 0.0
25/06:00pm 23.9 21.4 14.0 54 5.8 SSW 20 30 11 16 1012.0 1012.0 0.0
25/05:30pm 26.5 24.0 12.2 41 8.2 SSW 17 24 9 13 1011.7 1011.7 0.0
25/05:00pm 29.4 27.3 6.7 24 12.1 SW 7 13 4 7 1011.3 1011.3 0.0
25/04:30pm 29.1 27.8 9.3 29 11.0 SSE 6 9 3 5 1011.3 1011.3 0.0
25/04:00pm 28.6 26.9 8.3 28 11.1 SSE 7 13 4 7 1011.8 1011.8 0.0
25/03:30pm 28.7 25.9 9.9 31 10.5 SSW 15 19 8 10 1012.7 1012.7 0.0
25/03:00pm 28.2 25.4 9.9 32 10.2 SSW 15 19 8 10 1013.0 1013.0 0.0
25/02:30pm 29.7 27.9 9.3 28 11.4 NNW 9 20 5 11 1013.2 1013.2 0.0
25/02:00pm 29.7 27.5 9.3 28 11.4 NW 11 22 6 12 1013.5 1013.5 0.0
25/01:30pm 28.9 26.8 11.0 33 10.2 NNW 13 22 7 12 1013.8 1013.8 0.0
25/01:00pm 28.5 25.8 10.2 32 10.3 NNW 15 22 8 12 1014.1 1014.1 0.0
25/12:30pm 28.2 25.9 10.4 33 10.0 NNW 13 22 7 12 1014.5 1014.5 0.0
25/12:00pm 27.6 24.6 12.0 38 9.0 NNW 19 28 10 15 1014.8 1014.8 0.0
25/11:30am 25.9 22.0 12.0 42 8.0 N 24 32 13 17 1015.1 1015.1 0.0
25/11:00am 25.1 21.3 12.3 45 7.3 N 24 35 13 19 1015.5 1015.5 0.0
25/10:30am 23.7 19.7 13.0 51 6.2 N 26 35 14 19 1015.5 1015.5 0.0
25/10:00am 21.7 17.7 13.1 58 4.9 NNW 26 35 14 19 1015.7 1015.7 0.0
25/09:30am 19.0 15.8 11.8 63 4.0 NNW 20 28 11 15 1015.7 1015.7 0.0
25/09:00am 17.9 15.6 11.7 67 3.4 NNW 15 20 8 11 1015.7 1015.7 0.0
25/08:30am 16.4 14.1 11.6 73 2.6 N 15 20 8 11 1015.6 1015.6 0.0
25/08:00am 14.1 12.5 11.4 84 1.4 N 11 15 6 8 1015.5 1015.5 0.0
25/07:30am 12.0 10.3 9.9 87 1.1 NNW 9 13 5 7 1015.7 1015.7 0.0
25/07:00am 11.2 9.0 9.5 89 0.9 N 11 17 6 9 1015.9 1015.9 0.0

Latest Capital City Observations: Canberra | Sydney | Melbourne | Brisbane | Adelaide | Perth | Hobart | Darwin

Other formats

Comma delimited format used in spreadsheet applications
http://www.bom.gov.au/fwo/IDV60901/IDV60901.94870.axf

JavaScript Object Notation format (JSON) in row-major order
http://www.bom.gov.au/fwo/IDV60901/IDV60901.94870.json

Data quality

Most of these data are generated automatically and are frequently updated. Quality checks on data are not normally performed. It is possible for incorrect values to appear. Refer to information at About Latest Weather Observations and please check the disclaimer before using these data.